sensor_id;sensor_type;location;lat;lon;timestamp;P1;durP1;ratioP1;P2;durP2;ratioP2
1460;SDS011;724;49.910;12.530;2023-10-09T00:01:01;16.02;;;15.23;;
1460;SDS011;724;49.910;12.530;2023-10-09T00:03:30;16.17;;;15.38;;
1460;SDS011;724;49.910;12.530;2023-10-09T00:06:03;16.30;;;15.50;;
1460;SDS011;724;49.910;12.530;2023-10-09T00:08:30;16.25;;;15.45;;
1460;SDS011;724;49.910;12.530;2023-10-09T00:10:57;15.40;;;14.60;;
1460;SDS011;724;49.910;12.530;2023-10-09T00:13:38;15.82;;;15.02;;
1460;SDS011;724;49.910;12.530;2023-10-09T00:16:14;15.30;;;14.50;;
1460;SDS011;724;49.910;12.530;2023-10-09T00:18:48;15.50;;;14.70;;
1460;SDS011;724;49.910;12.530;2023-10-09T00:21:17;15.90;;;15.10;;
1460;SDS011;724;49.910;12.530;2023-10-09T00:23:45;16.98;;;16.08;;
1460;SDS011;724;49.910;12.530;2023-10-09T00:26:20;16.30;;;15.50;;
1460;SDS011;724;49.910;12.530;2023-10-09T00:28:48;15.85;;;15.05;;
1460;SDS011;724;49.910;12.530;2023-10-09T00:31:16;16.40;;;15.60;;
1460;SDS011;724;49.910;12.530;2023-10-09T00:33:52;16.08;;;15.27;;
1460;SDS011;724;49.910;12.530;2023-10-09T00:36:21;16.58;;;15.77;;
1460;SDS011;724;49.910;12.530;2023-10-09T00:38:53;16.75;;;15.93;;
1460;SDS011;724;49.910;12.530;2023-10-09T00:41:25;15.30;;;14.50;;
1460;SDS011;724;49.910;12.530;2023-10-09T00:43:54;17.30;;;16.40;;
1460;SDS011;724;49.910;12.530;2023-10-09T00:46:24;16.52;;;15.73;;
1460;SDS011;724;49.910;12.530;2023-10-09T00:48:54;16.00;;;15.20;;
1460;SDS011;724;49.910;12.530;2023-10-09T00:51:24;15.80;;;15.00;;
1460;SDS011;724;49.910;12.530;2023-10-09T00:53:57;15.93;;;15.13;;
1460;SDS011;724;49.910;12.530;2023-10-09T00:56:32;15.80;;;15.00;;
1460;SDS011;724;49.910;12.530;2023-10-09T00:59:06;16.10;;;15.30;;
1460;SDS011;724;49.910;12.530;2023-10-09T01:01:39;16.10;;;15.30;;
1460;SDS011;724;49.910;12.530;2023-10-09T01:04:10;16.20;;;15.40;;
1460;SDS011;724;49.910;12.530;2023-10-09T01:06:42;16.45;;;15.65;;
1460;SDS011;724;49.910;12.530;2023-10-09T01:09:10;16.90;;;16.02;;
1460;SDS011;724;49.910;12.530;2023-10-09T01:11:39;15.95;;;15.15;;
1460;SDS011;724;49.910;12.530;2023-10-09T01:14:28;15.40;;;14.60;;
1460;SDS011;724;49.910;12.530;2023-10-09T01:16:56;15.60;;;14.80;;
1460;SDS011;724;49.910;12.530;2023-10-09T01:19:25;15.48;;;14.68;;
1460;SDS011;724;49.910;12.530;2023-10-09T01:21:54;15.30;;;14.50;;
1460;SDS011;724;49.910;12.530;2023-10-09T01:24:29;15.50;;;14.70;;
1460;SDS011;724;49.910;12.530;2023-10-09T01:26:57;14.93;;;14.13;;
1460;SDS011;724;49.910;12.530;2023-10-09T01:29:24;15.43;;;14.63;;
1460;SDS011;724;49.910;12.530;2023-10-09T01:31:53;16.00;;;15.20;;
1460;SDS011;724;49.910;12.530;2023-10-09T01:34:21;15.73;;;14.93;;
1460;SDS011;724;49.910;12.530;2023-10-09T01:37:07;15.60;;;14.80;;
1460;SDS011;724;49.910;12.530;2023-10-09T01:39:38;14.90;;;14.10;;
1460;SDS011;724;49.910;12.530;2023-10-09T01:42:07;14.80;;;14.00;;
1460;SDS011;724;49.910;12.530;2023-10-09T01:44:34;14.90;;;14.10;;
1460;SDS011;724;49.910;12.530;2023-10-09T01:47:08;14.70;;;13.95;;
1460;SDS011;724;49.910;12.530;2023-10-09T01:49:39;14.60;;;13.90;;
1460;SDS011;724;49.910;12.530;2023-10-09T01:52:08;13.60;;;12.90;;
1460;SDS011;724;49.910;12.530;2023-10-09T01:54:36;14.30;;;13.60;;
1460;SDS011;724;49.910;12.530;2023-10-09T01:57:07;14.48;;;13.77;;
1460;SDS011;724;49.910;12.530;2023-10-09T01:59:38;15.35;;;14.55;;
1460;SDS011;724;49.910;12.530;2023-10-09T02:02:08;13.50;;;12.80;;
1460;SDS011;724;49.910;12.530;2023-10-09T02:04:50;14.80;;;14.00;;
1460;SDS011;724;49.910;12.530;2023-10-09T02:07:19;14.23;;;13.52;;
1460;SDS011;724;49.910;12.530;2023-10-09T02:09:54;15.05;;;14.25;;
1460;SDS011;724;49.910;12.530;2023-10-09T02:12:21;14.60;;;13.90;;
1460;SDS011;724;49.910;12.530;2023-10-09T02:14:49;14.10;;;13.40;;
1460;SDS011;724;49.910;12.530;2023-10-09T02:17:19;13.60;;;12.90;;
1460;SDS011;724;49.910;12.530;2023-10-09T02:19:50;14.20;;;13.50;;
1460;SDS011;724;49.910;12.530;2023-10-09T02:22:17;13.80;;;13.10;;
1460;SDS011;724;49.910;12.530;2023-10-09T02:24:44;13.80;;;13.10;;
1460;SDS011;724;49.910;12.530;2023-10-09T02:27:24;14.00;;;13.30;;
1460;SDS011;724;49.910;12.530;2023-10-09T02:30:18;14.10;;;13.40;;
1460;SDS011;724;49.910;12.530;2023-10-09T02:32:52;14.13;;;13.43;;
1460;SDS011;724;49.910;12.530;2023-10-09T02:35:31;14.63;;;13.90;;
1460;SDS011;724;49.910;12.530;2023-10-09T02:38:02;14.10;;;13.40;;
1460;SDS011;724;49.910;12.530;2023-10-09T02:40:32;14.35;;;13.65;;
1460;SDS011;724;49.910;12.530;2023-10-09T02:43:08;14.50;;;13.80;;
1460;SDS011;724;49.910;12.530;2023-10-09T02:45:42;14.85;;;14.05;;
1460;SDS011;724;49.910;12.530;2023-10-09T02:48:15;14.90;;;14.10;;
1460;SDS011;724;49.910;12.530;2023-10-09T02:50:44;15.38;;;14.57;;
1460;SDS011;724;49.910;12.530;2023-10-09T02:53:11;15.60;;;14.80;;
1460;SDS011;724;49.910;12.530;2023-10-09T02:55:44;16.33;;;15.52;;
1460;SDS011;724;49.910;12.530;2023-10-09T02:58:28;15.82;;;15.02;;
1460;SDS011;724;49.910;12.530;2023-10-09T03:00:57;15.25;;;14.45;;
1460;SDS011;724;49.910;12.530;2023-10-09T03:03:24;15.70;;;14.90;;
1460;SDS011;724;49.910;12.530;2023-10-09T03:05:52;16.58;;;15.77;;
1460;SDS011;724;49.910;12.530;2023-10-09T03:08:18;17.00;;;16.10;;
1460;SDS011;724;49.910;12.530;2023-10-09T03:10:45;16.90;;;16.00;;
1460;SDS011;724;49.910;12.530;2023-10-09T03:13:13;17.20;;;16.30;;
1460;SDS011;724;49.910;12.530;2023-10-09T03:15:45;17.30;;;16.40;;
1460;SDS011;724;49.910;12.530;2023-10-09T03:18:13;17.80;;;16.90;;
1460;SDS011;724;49.910;12.530;2023-10-09T03:20:40;19.73;;;18.73;;
1460;SDS011;724;49.910;12.530;2023-10-09T03:23:09;20.30;;;19.30;;
1460;SDS011;724;49.910;12.530;2023-10-09T03:25:39;21.58;;;20.48;;
1460;SDS011;724;49.910;12.530;2023-10-09T03:28:10;21.70;;;20.60;;
1460;SDS011;724;49.910;12.530;2023-10-09T03:30:37;22.30;;;21.20;;
1460;SDS011;724;49.910;12.530;2023-10-09T03:33:06;21.70;;;20.60;;
1460;SDS011;724;49.910;12.530;2023-10-09T03:35:34;22.35;;;21.25;;
1460;SDS011;724;49.910;12.530;2023-10-09T03:38:01;22.23;;;21.13;;
1460;SDS011;724;49.910;12.530;2023-10-09T03:40:36;22.30;;;21.20;;
1460;SDS011;724;49.910;12.530;2023-10-09T03:43:07;22.50;;;21.40;;
1460;SDS011;724;49.910;12.530;2023-10-09T03:45:35;23.60;;;22.40;;
1460;SDS011;724;49.910;12.530;2023-10-09T03:48:04;23.58;;;22.38;;
1460;SDS011;724;49.910;12.530;2023-10-09T03:50:40;23.30;;;22.10;;
1460;SDS011;724;49.910;12.530;2023-10-09T03:53:08;23.42;;;22.23;;
1460;SDS011;724;49.910;12.530;2023-10-09T03:55:37;24.90;;;23.70;;
1460;SDS011;724;49.910;12.530;2023-10-09T03:58:04;24.20;;;23.00;;
1460;SDS011;724;49.910;12.530;2023-10-09T04:00:31;23.60;;;22.40;;
1460;SDS011;724;49.910;12.530;2023-10-09T04:03:07;23.70;;;22.50;;
1460;SDS011;724;49.910;12.530;2023-10-09T04:05:36;22.80;;;21.70;;
1460;SDS011;724;49.910;12.530;2023-10-09T04:08:06;23.17;;;22.00;;
1460;SDS011;724;49.910;12.530;2023-10-09T04:10:38;22.40;;;21.30;;
1460;SDS011;724;49.910;12.530;2023-10-09T04:13:17;22.80;;;21.70;;
1460;SDS011;724;49.910;12.530;2023-10-09T04:15:48;22.52;;;21.42;;
1460;SDS011;724;49.910;12.530;2023-10-09T04:18:19;23.70;;;22.50;;
1460;SDS011;724;49.910;12.530;2023-10-09T04:20:53;22.30;;;21.20;;
1460;SDS011;724;49.910;12.530;2023-10-09T04:23:38;22.10;;;21.00;;
1460;SDS011;724;49.910;12.530;2023-10-09T04:26:19;22.02;;;20.92;;
1460;SDS011;724;49.910;12.530;2023-10-09T04:28:46;22.00;;;20.90;;
1460;SDS011;724;49.910;12.530;2023-10-09T04:31:16;22.00;;;20.90;;
1460;SDS011;724;49.910;12.530;2023-10-09T04:33:46;22.75;;;21.65;;
1460;SDS011;724;49.910;12.530;2023-10-09T04:36:19;21.60;;;20.50;;
1460;SDS011;724;49.910;12.530;2023-10-09T04:38:53;21.40;;;20.30;;
1460;SDS011;724;49.910;12.530;2023-10-09T04:41:41;20.48;;;19.48;;
1460;SDS011;724;49.910;12.530;2023-10-09T04:44:24;20.30;;;19.30;;
1460;SDS011;724;49.910;12.530;2023-10-09T04:47:00;19.90;;;18.90;;
1460;SDS011;724;49.910;12.530;2023-10-09T04:49:51;19.90;;;18.90;;
1460;SDS011;724;49.910;12.530;2023-10-09T04:52:27;19.40;;;18.40;;
1460;SDS011;724;49.910;12.530;2023-10-09T04:55:08;19.38;;;18.38;;
1460;SDS011;724;49.910;12.530;2023-10-09T04:57:44;19.60;;;18.60;;
1460;SDS011;724;49.910;12.530;2023-10-09T05:00:25;19.75;;;18.75;;
1460;SDS011;724;49.910;12.530;2023-10-09T05:03:12;20.00;;;19.00;;
1460;SDS011;724;49.910;12.530;2023-10-09T05:05:51;19.90;;;18.90;;
1460;SDS011;724;49.910;12.530;2023-10-09T05:08:25;19.98;;;18.98;;
1460;SDS011;724;49.910;12.530;2023-10-09T05:11:11;31.80;;;30.20;;
1460;SDS011;724;49.910;12.530;2023-10-09T05:13:40;31.98;;;30.38;;
1460;SDS011;724;49.910;12.530;2023-10-09T05:16:22;31.73;;;30.13;;
1460;SDS011;724;49.910;12.530;2023-10-09T05:18:50;31.10;;;29.60;;
1460;SDS011;724;49.910;12.530;2023-10-09T05:21:23;31.20;;;29.70;;
1460;SDS011;724;49.910;12.530;2023-10-09T05:24:02;29.30;;;27.90;;
1460;SDS011;724;49.910;12.530;2023-10-09T05:26:44;29.20;;;27.80;;
1460;SDS011;724;49.910;12.530;2023-10-09T05:29:17;30.00;;;28.50;;
1460;SDS011;724;49.910;12.530;2023-10-09T05:32:00;29.60;;;28.10;;
1460;SDS011;724;49.910;12.530;2023-10-09T05:34:30;28.95;;;27.55;;
1460;SDS011;724;49.910;12.530;2023-10-09T05:37:03;28.73;;;27.33;;
1460;SDS011;724;49.910;12.530;2023-10-09T05:39:43;28.40;;;27.00;;
1460;SDS011;724;49.910;12.530;2023-10-09T05:42:23;27.83;;;26.42;;
1460;SDS011;724;49.910;12.530;2023-10-09T05:44:54;28.35;;;26.95;;
1460;SDS011;724;49.910;12.530;2023-10-09T05:47:39;26.90;;;25.60;;
1460;SDS011;724;49.910;12.530;2023-10-09T05:50:13;26.23;;;24.92;;
1460;SDS011;724;49.910;12.530;2023-10-09T05:52:58;25.50;;;24.20;;
1460;SDS011;724;49.910;12.530;2023-10-09T05:55:42;25.20;;;23.95;;
1460;SDS011;724;49.910;12.530;2023-10-09T05:58:33;25.20;;;23.95;;
1460;SDS011;724;49.910;12.530;2023-10-09T06:01:18;24.95;;;23.75;;
1460;SDS011;724;49.910;12.530;2023-10-09T06:04:02;24.67;;;23.48;;
1460;SDS011;724;49.910;12.530;2023-10-09T06:06:40;24.90;;;23.70;;
1460;SDS011;724;49.910;12.530;2023-10-09T06:09:11;24.33;;;23.13;;
1460;SDS011;724;49.910;12.530;2023-10-09T06:11:55;24.35;;;23.15;;
1460;SDS011;724;49.910;12.530;2023-10-09T06:14:42;24.60;;;23.40;;
1460;SDS011;724;49.910;12.530;2023-10-09T06:17:14;24.30;;;23.10;;
1460;SDS011;724;49.910;12.530;2023-10-09T06:19:49;24.00;;;22.80;;
1460;SDS011;724;49.910;12.530;2023-10-09T06:22:23;23.65;;;22.45;;
1460;SDS011;724;49.910;12.530;2023-10-09T06:25:09;23.80;;;22.60;;
1460;SDS011;724;49.910;12.530;2023-10-09T06:27:37;23.40;;;22.20;;
1460;SDS011;724;49.910;12.530;2023-10-09T06:30:23;23.40;;;22.20;;
1460;SDS011;724;49.910;12.530;2023-10-09T06:32:50;23.15;;;21.98;;
1460;SDS011;724;49.910;12.530;2023-10-09T06:35:23;22.90;;;21.80;;
1460;SDS011;724;49.910;12.530;2023-10-09T06:37:55;22.60;;;21.50;;
1460;SDS011;724;49.910;12.530;2023-10-09T06:40:46;22.50;;;21.40;;
1460;SDS011;724;49.910;12.530;2023-10-09T06:43:31;22.65;;;21.55;;
1460;SDS011;724;49.910;12.530;2023-10-09T06:46:01;22.60;;;21.50;;
1460;SDS011;724;49.910;12.530;2023-10-09T06:48:42;22.45;;;21.35;;
1460;SDS011;724;49.910;12.530;2023-10-09T06:51:20;22.40;;;21.30;;
1460;SDS011;724;49.910;12.530;2023-10-09T06:54:05;22.02;;;20.92;;
1460;SDS011;724;49.910;12.530;2023-10-09T06:56:44;22.10;;;21.00;;
1460;SDS011;724;49.910;12.530;2023-10-09T06:59:37;21.90;;;20.80;;
1460;SDS011;724;49.910;12.530;2023-10-09T07:02:30;21.77;;;20.67;;
1460;SDS011;724;49.910;12.530;2023-10-09T07:05:10;21.77;;;20.67;;
1460;SDS011;724;49.910;12.530;2023-10-09T07:07:42;21.67;;;20.58;;
1460;SDS011;724;49.910;12.530;2023-10-09T07:10:19;21.65;;;20.55;;
1460;SDS011;724;49.910;12.530;2023-10-09T07:12:59;21.10;;;20.00;;
1460;SDS011;724;49.910;12.530;2023-10-09T07:15:27;21.10;;;20.00;;
1460;SDS011;724;49.910;12.530;2023-10-09T07:18:11;20.80;;;19.80;;
1460;SDS011;724;49.910;12.530;2023-10-09T07:20:48;20.40;;;19.40;;
1460;SDS011;724;49.910;12.530;2023-10-09T07:23:26;21.10;;;20.00;;
1460;SDS011;724;49.910;12.530;2023-10-09T07:26:03;20.65;;;19.65;;
1460;SDS011;724;49.910;12.530;2023-10-09T07:29:03;20.90;;;19.90;;
1460;SDS011;724;49.910;12.530;2023-10-09T07:31:46;21.30;;;20.20;;
1460;SDS011;724;49.910;12.530;2023-10-09T07:34:22;20.25;;;19.25;;
1460;SDS011;724;49.910;12.530;2023-10-09T07:37:18;20.30;;;19.30;;
1460;SDS011;724;49.910;12.530;2023-10-09T07:39:47;20.40;;;19.40;;
1460;SDS011;724;49.910;12.530;2023-10-09T07:42:22;20.50;;;19.50;;
1460;SDS011;724;49.910;12.530;2023-10-09T07:44:59;20.90;;;19.90;;
1460;SDS011;724;49.910;12.530;2023-10-09T07:47:37;20.70;;;19.70;;
1460;SDS011;724;49.910;12.530;2023-10-09T07:50:26;20.60;;;19.60;;
1460;SDS011;724;49.910;12.530;2023-10-09T07:53:03;21.10;;;20.00;;
1460;SDS011;724;49.910;12.530;2023-10-09T07:55:43;21.10;;;20.00;;
1460;SDS011;724;49.910;12.530;2023-10-09T07:58:19;20.90;;;19.90;;
1460;SDS011;724;49.910;12.530;2023-10-09T08:00:51;20.88;;;19.88;;
1460;SDS011;724;49.910;12.530;2023-10-09T08:03:40;20.10;;;19.10;;
1460;SDS011;724;49.910;12.530;2023-10-09T08:06:10;20.20;;;19.20;;
1460;SDS011;724;49.910;12.530;2023-10-09T08:08:51;20.02;;;19.02;;
1460;SDS011;724;49.910;12.530;2023-10-09T08:11:32;19.90;;;18.90;;
1460;SDS011;724;49.910;12.530;2023-10-09T08:14:25;19.75;;;18.75;;
1460;SDS011;724;49.910;12.530;2023-10-09T08:17:07;19.90;;;18.90;;
1460;SDS011;724;49.910;12.530;2023-10-09T08:19:40;19.80;;;18.80;;
1460;SDS011;724;49.910;12.530;2023-10-09T08:22:20;20.40;;;19.40;;
1460;SDS011;724;49.910;12.530;2023-10-09T08:25:11;20.20;;;19.20;;
1460;SDS011;724;49.910;12.530;2023-10-09T08:27:55;20.10;;;19.10;;
1460;SDS011;724;49.910;12.530;2023-10-09T08:30:23;20.20;;;19.20;;
1460;SDS011;724;49.910;12.530;2023-10-09T08:33:15;20.15;;;19.15;;
1460;SDS011;724;49.910;12.530;2023-10-09T08:35:59;20.10;;;19.10;;
1460;SDS011;724;49.910;12.530;2023-10-09T08:38:30;20.10;;;19.10;;
1460;SDS011;724;49.910;12.530;2023-10-09T08:41:08;19.90;;;18.90;;
1460;SDS011;724;49.910;12.530;2023-10-09T08:43:44;20.00;;;19.00;;
1460;SDS011;724;49.910;12.530;2023-10-09T08:46:16;20.10;;;19.10;;
1460;SDS011;724;49.910;12.530;2023-10-09T08:48:50;20.42;;;19.42;;
1460;SDS011;724;49.910;12.530;2023-10-09T08:51:17;20.00;;;19.00;;
1460;SDS011;724;49.910;12.530;2023-10-09T08:53:45;20.48;;;19.48;;
1460;SDS011;724;49.910;12.530;2023-10-09T08:56:12;19.83;;;18.83;;
1460;SDS011;724;49.910;12.530;2023-10-09T08:58:44;20.05;;;19.05;;
1460;SDS011;724;49.910;12.530;2023-10-09T09:01:15;19.75;;;18.75;;
1460;SDS011;724;49.910;12.530;2023-10-09T09:03:44;19.65;;;18.65;;
1460;SDS011;724;49.910;12.530;2023-10-09T09:06:13;19.20;;;18.20;;
1460;SDS011;724;49.910;12.530;2023-10-09T09:08:40;18.70;;;17.80;;
1460;SDS011;724;49.910;12.530;2023-10-09T09:11:10;18.50;;;17.60;;
1460;SDS011;724;49.910;12.530;2023-10-09T09:13:41;18.70;;;17.80;;
1460;SDS011;724;49.910;12.530;2023-10-09T09:16:17;18.90;;;17.95;;
1460;SDS011;724;49.910;12.530;2023-10-09T09:18:55;18.30;;;17.40;;
1460;SDS011;724;49.910;12.530;2023-10-09T09:21:27;18.60;;;17.70;;
1460;SDS011;724;49.910;12.530;2023-10-09T09:23:57;18.50;;;17.60;;
1460;SDS011;724;49.910;12.530;2023-10-09T09:26:33;18.70;;;17.80;;
1460;SDS011;724;49.910;12.530;2023-10-09T09:29:09;18.52;;;17.63;;
1460;SDS011;724;49.910;12.530;2023-10-09T09:31:39;18.50;;;17.60;;
1460;SDS011;724;49.910;12.530;2023-10-09T09:34:18;18.50;;;17.60;;
1460;SDS011;724;49.910;12.530;2023-10-09T09:36:52;18.50;;;17.60;;
1460;SDS011;724;49.910;12.530;2023-10-09T09:39:23;18.70;;;17.80;;
1460;SDS011;724;49.910;12.530;2023-10-09T09:41:55;18.60;;;17.70;;
1460;SDS011;724;49.910;12.530;2023-10-09T09:44:28;18.70;;;17.80;;
1460;SDS011;724;49.910;12.530;2023-10-09T09:46:59;18.50;;;17.60;;
1460;SDS011;724;49.910;12.530;2023-10-09T09:49:29;17.90;;;17.00;;
1460;SDS011;724;49.910;12.530;2023-10-09T09:52:05;18.25;;;17.35;;
1460;SDS011;724;49.910;12.530;2023-10-09T09:54:35;17.90;;;17.00;;
1460;SDS011;724;49.910;12.530;2023-10-09T09:57:03;17.75;;;16.85;;
1460;SDS011;724;49.910;12.530;2023-10-09T09:59:35;17.80;;;16.90;;
1460;SDS011;724;49.910;12.530;2023-10-09T10:02:18;17.70;;;16.80;;
1460;SDS011;724;49.910;12.530;2023-10-09T10:04:51;17.90;;;17.00;;
1460;SDS011;724;49.910;12.530;2023-10-09T10:07:23;17.90;;;17.00;;
1460;SDS011;724;49.910;12.530;2023-10-09T10:09:54;17.92;;;17.02;;
1460;SDS011;724;49.910;12.530;2023-10-09T10:15:57;17.80;;;16.90;;
1460;SDS011;724;49.910;12.530;2023-10-09T10:18:25;18.20;;;17.30;;
1460;SDS011;724;49.910;12.530;2023-10-09T10:21:09;17.60;;;16.70;;
1460;SDS011;724;49.910;12.530;2023-10-09T10:23:42;16.70;;;15.90;;
1460;SDS011;724;49.910;12.530;2023-10-09T10:26:19;16.70;;;15.90;;
1460;SDS011;724;49.910;12.530;2023-10-09T10:29:13;17.00;;;16.10;;
1460;SDS011;724;49.910;12.530;2023-10-09T10:31:54;16.70;;;15.90;;
1460;SDS011;724;49.910;12.530;2023-10-09T10:34:25;17.30;;;16.40;;
1460;SDS011;724;49.910;12.530;2023-10-09T10:36:52;17.90;;;17.00;;
1460;SDS011;724;49.910;12.530;2023-10-09T10:39:26;18.10;;;17.20;;
1460;SDS011;724;49.910;12.530;2023-10-09T10:42:08;18.73;;;17.83;;
1460;SDS011;724;49.910;12.530;2023-10-09T10:44:40;19.00;;;18.00;;
1460;SDS011;724;49.910;12.530;2023-10-09T10:47:18;18.70;;;17.80;;
1460;SDS011;724;49.910;12.530;2023-10-09T10:49:57;18.70;;;17.80;;
1460;SDS011;724;49.910;12.530;2023-10-09T10:52:36;18.02;;;17.13;;
1460;SDS011;724;49.910;12.530;2023-10-09T10:55:09;17.50;;;16.60;;
1460;SDS011;724;49.910;12.530;2023-10-09T10:57:44;17.40;;;16.50;;
1460;SDS011;724;49.910;12.530;2023-10-09T11:00:25;16.97;;;16.07;;
1460;SDS011;724;49.910;12.530;2023-10-09T11:03:10;16.50;;;15.70;;
1460;SDS011;724;49.910;12.530;2023-10-09T11:05:45;16.20;;;15.40;;
1460;SDS011;724;49.910;12.530;2023-10-09T11:08:16;16.90;;;16.00;;
1460;SDS011;724;49.910;12.530;2023-10-09T11:10:49;16.30;;;15.50;;
1460;SDS011;724;49.910;12.530;2023-10-09T11:13:21;16.30;;;15.50;;
1460;SDS011;724;49.910;12.530;2023-10-09T11:16:00;16.30;;;15.50;;
1460;SDS011;724;49.910;12.530;2023-10-09T11:18:49;16.40;;;15.60;;
1460;SDS011;724;49.910;12.530;2023-10-09T11:21:16;16.90;;;16.00;;
1460;SDS011;724;49.910;12.530;2023-10-09T11:23:56;16.90;;;16.00;;
1460;SDS011;724;49.910;12.530;2023-10-09T11:26:45;17.00;;;16.10;;
1460;SDS011;724;49.910;12.530;2023-10-09T11:29:20;17.00;;;16.10;;
1460;SDS011;724;49.910;12.530;2023-10-09T11:32:17;17.90;;;17.00;;
1460;SDS011;724;49.910;12.530;2023-10-09T11:34:44;17.80;;;16.90;;
1460;SDS011;724;49.910;12.530;2023-10-09T11:37:17;17.50;;;16.60;;
1460;SDS011;724;49.910;12.530;2023-10-09T11:39:58;16.40;;;15.60;;
1460;SDS011;724;49.910;12.530;2023-10-09T11:42:27;15.90;;;15.10;;
1460;SDS011;724;49.910;12.530;2023-10-09T11:45:03;16.20;;;15.40;;
1460;SDS011;724;49.910;12.530;2023-10-09T11:47:44;16.70;;;15.90;;
1460;SDS011;724;49.910;12.530;2023-10-09T11:50:19;16.10;;;15.30;;
1460;SDS011;724;49.910;12.530;2023-10-09T11:52:56;16.00;;;15.20;;
1460;SDS011;724;49.910;12.530;2023-10-09T11:55:34;16.40;;;15.60;;
1460;SDS011;724;49.910;12.530;2023-10-09T11:58:04;17.27;;;16.38;;
1460;SDS011;724;49.910;12.530;2023-10-09T12:00:32;17.07;;;16.17;;
1460;SDS011;724;49.910;12.530;2023-10-09T12:03:09;16.90;;;16.00;;
1460;SDS011;724;49.910;12.530;2023-10-09T12:05:38;17.20;;;16.30;;
1460;SDS011;724;49.910;12.530;2023-10-09T12:08:11;17.40;;;16.50;;
1460;SDS011;724;49.910;12.530;2023-10-09T12:10:40;17.70;;;16.80;;
1460;SDS011;724;49.910;12.530;2023-10-09T12:13:14;18.10;;;17.20;;
1460;SDS011;724;49.910;12.530;2023-10-09T12:15:41;17.90;;;17.00;;
1460;SDS011;724;49.910;12.530;2023-10-09T12:18:11;17.60;;;16.70;;
1460;SDS011;724;49.910;12.530;2023-10-09T12:20:41;17.80;;;16.90;;
1460;SDS011;724;49.910;12.530;2023-10-09T12:23:12;17.50;;;16.60;;
1460;SDS011;724;49.910;12.530;2023-10-09T12:25:39;17.20;;;16.30;;
1460;SDS011;724;49.910;12.530;2023-10-09T12:28:09;17.40;;;16.50;;
1460;SDS011;724;49.910;12.530;2023-10-09T12:30:39;17.60;;;16.70;;
1460;SDS011;724;49.910;12.530;2023-10-09T12:33:13;17.73;;;16.83;;
1460;SDS011;724;49.910;12.530;2023-10-09T12:35:41;17.80;;;16.90;;
1460;SDS011;724;49.910;12.530;2023-10-09T12:38:10;17.97;;;17.07;;
1460;SDS011;724;49.910;12.530;2023-10-09T12:40:43;17.80;;;16.90;;
1460;SDS011;724;49.910;12.530;2023-10-09T12:43:15;18.00;;;17.10;;
1460;SDS011;724;49.910;12.530;2023-10-09T12:45:46;17.55;;;16.65;;
1460;SDS011;724;49.910;12.530;2023-10-09T12:48:12;17.65;;;16.75;;
1460;SDS011;724;49.910;12.530;2023-10-09T12:50:40;17.40;;;16.50;;
1460;SDS011;724;49.910;12.530;2023-10-09T12:53:09;17.30;;;16.40;;
1460;SDS011;724;49.910;12.530;2023-10-09T12:55:38;17.70;;;16.80;;
1460;SDS011;724;49.910;12.530;2023-10-09T12:58:07;17.30;;;16.40;;
1460;SDS011;724;49.910;12.530;2023-10-09T13:00:39;17.63;;;16.73;;
1460;SDS011;724;49.910;12.530;2023-10-09T13:03:10;17.50;;;16.60;;
1460;SDS011;724;49.910;12.530;2023-10-09T13:05:43;17.63;;;16.73;;
1460;SDS011;724;49.910;12.530;2023-10-09T13:08:17;17.60;;;16.70;;
1460;SDS011;724;49.910;12.530;2023-10-09T13:10:46;17.90;;;17.00;;
1460;SDS011;724;49.910;12.530;2023-10-09T13:13:20;18.20;;;17.30;;
1460;SDS011;724;49.910;12.530;2023-10-09T13:15:47;18.38;;;17.48;;
1460;SDS011;724;49.910;12.530;2023-10-09T13:18:20;18.60;;;17.70;;
1460;SDS011;724;49.910;12.530;2023-10-09T13:20:48;18.25;;;17.35;;
1460;SDS011;724;49.910;12.530;2023-10-09T13:23:14;18.50;;;17.60;;
1460;SDS011;724;49.910;12.530;2023-10-09T13:25:42;18.40;;;17.50;;
1460;SDS011;724;49.910;12.530;2023-10-09T13:28:09;18.30;;;17.40;;
1460;SDS011;724;49.910;12.530;2023-10-09T13:30:37;18.10;;;17.20;;
1460;SDS011;724;49.910;12.530;2023-10-09T13:33:14;18.10;;;17.20;;
1460;SDS011;724;49.910;12.530;2023-10-09T13:35:44;18.10;;;17.20;;
1460;SDS011;724;49.910;12.530;2023-10-09T13:38:15;18.00;;;17.10;;
1460;SDS011;724;49.910;12.530;2023-10-09T13:40:42;17.90;;;17.00;;
1460;SDS011;724;49.910;12.530;2023-10-09T13:43:09;18.40;;;17.50;;
1460;SDS011;724;49.910;12.530;2023-10-09T13:45:41;18.13;;;17.23;;
1460;SDS011;724;49.910;12.530;2023-10-09T13:48:14;17.90;;;17.00;;
1460;SDS011;724;49.910;12.530;2023-10-09T13:50:42;18.10;;;17.20;;
1460;SDS011;724;49.910;12.530;2023-10-09T13:53:10;18.60;;;17.70;;
1460;SDS011;724;49.910;12.530;2023-10-09T13:55:39;18.80;;;17.90;;
1460;SDS011;724;49.910;12.530;2023-10-09T13:58:08;18.40;;;17.50;;
1460;SDS011;724;49.910;12.530;2023-10-09T14:00:39;18.47;;;17.57;;
1460;SDS011;724;49.910;12.530;2023-10-09T14:03:08;18.70;;;17.80;;
1460;SDS011;724;49.910;12.530;2023-10-09T14:05:38;18.60;;;17.70;;
1460;SDS011;724;49.910;12.530;2023-10-09T14:08:18;19.10;;;18.10;;
1460;SDS011;724;49.910;12.530;2023-10-09T14:10:47;18.30;;;17.40;;
1460;SDS011;724;49.910;12.530;2023-10-09T14:13:14;18.23;;;17.33;;
1460;SDS011;724;49.910;12.530;2023-10-09T14:15:42;18.40;;;17.50;;
1460;SDS011;724;49.910;12.530;2023-10-09T14:18:11;18.20;;;17.30;;
1460;SDS011;724;49.910;12.530;2023-10-09T14:20:39;17.80;;;16.90;;
1460;SDS011;724;49.910;12.530;2023-10-09T14:23:06;17.90;;;17.00;;
1460;SDS011;724;49.910;12.530;2023-10-09T14:25:39;17.70;;;16.80;;
1460;SDS011;724;49.910;12.530;2023-10-09T14:28:09;17.80;;;16.90;;
1460;SDS011;724;49.910;12.530;2023-10-09T14:30:36;18.10;;;17.20;;
1460;SDS011;724;49.910;12.530;2023-10-09T14:33:08;18.10;;;17.20;;
1460;SDS011;724;49.910;12.530;2023-10-09T14:35:38;18.20;;;17.30;;
1460;SDS011;724;49.910;12.530;2023-10-09T14:38:05;18.20;;;17.30;;
1460;SDS011;724;49.910;12.530;2023-10-09T14:40:41;18.30;;;17.40;;
1460;SDS011;724;49.910;12.530;2023-10-09T14:43:09;18.40;;;17.50;;
1460;SDS011;724;49.910;12.530;2023-10-09T14:45:44;18.30;;;17.40;;
1460;SDS011;724;49.910;12.530;2023-10-09T14:48:13;18.30;;;17.40;;
1460;SDS011;724;49.910;12.530;2023-10-09T14:50:45;18.30;;;17.40;;
1460;SDS011;724;49.910;12.530;2023-10-09T14:53:13;18.63;;;17.73;;
1460;SDS011;724;49.910;12.530;2023-10-09T14:55:43;18.00;;;17.10;;
1460;SDS011;724;49.910;12.530;2023-10-09T14:58:18;18.30;;;17.40;;
1460;SDS011;724;49.910;12.530;2023-10-09T15:00:44;18.20;;;17.30;;
1460;SDS011;724;49.910;12.530;2023-10-09T15:03:12;17.93;;;17.03;;
1460;SDS011;724;49.910;12.530;2023-10-09T15:05:40;18.20;;;17.30;;
1460;SDS011;724;49.910;12.530;2023-10-09T15:08:08;18.20;;;17.30;;
1460;SDS011;724;49.910;12.530;2023-10-09T15:10:36;18.00;;;17.10;;
1460;SDS011;724;49.910;12.530;2023-10-09T15:13:12;18.00;;;17.10;;
1460;SDS011;724;49.910;12.530;2023-10-09T15:15:45;17.87;;;16.97;;
1460;SDS011;724;49.910;12.530;2023-10-09T15:18:16;17.90;;;17.00;;
1460;SDS011;724;49.910;12.530;2023-10-09T15:20:43;18.23;;;17.33;;
1460;SDS011;724;49.910;12.530;2023-10-09T15:23:10;18.43;;;17.53;;
1460;SDS011;724;49.910;12.530;2023-10-09T15:25:37;18.10;;;17.20;;
1460;SDS011;724;49.910;12.530;2023-10-09T15:28:08;18.40;;;17.50;;
1460;SDS011;724;49.910;12.530;2023-10-09T15:30:35;18.50;;;17.60;;